CYGW

Kuujjuarapik Airport

Kuujjuarapik, Quebec, Canada
TAF CYGW 212341Z 2200/2212 17012G22KT P6SM FEW015 BKN140 TEMPO 2200/2206 5SM -SN BLSN BKN015 OVC140 FM220600 17015KT 6SM -SN FEW015 OVC060 PROB30 2206/2209 2SM -SN FM220900 17015G25KT 2SM -SN BLSN OVC015 PROB30 2209/2212 11/2SM -SN BLSN RMK FCST BASED ON AUTO OBS. NXT FCST BY 220600Z
Issued Valid From Valid To
Jan-21 @ 23:41 UTC
(29 minutes ago)
Jan-22 @ 00:00 UTC
(10 minutes ago)
Jan-22 @ 12:00 UTC
(in 12 hours)
Jan-22 @ 00:00 to Jan-22 @ 06:00
TAF CYGW 212341Z 2200/2212 17012G22KT P6SM FEW015 BKN140
Wind Visibility Clouds
170° at 12 knots
 Gusting to 22 knots
Greater than 6 miles
  • Few at 1,500' AGL
  • Broken at 14,000' AGL
Temporary Jan-22 @ 00:00 to Jan-22 @ 06:00
TEMPO 2200/2206 5SM -SN BLSN BKN015 OVC140
Visibility Clouds Conditions
5 miles
  • Broken at 1,500' AGL
  • Overcast at 14,000' AGL
  • Light Snow
  • Blowing
  • Snow
From Jan-22 @ 06:00 to Jan-22 @ 09:00
FM220600 17015KT 6SM -SN FEW015 OVC060
Wind Visibility Clouds Conditions
170° at 15 knots 6 miles
  • Few at 1,500' AGL
  • Overcast at 6,000' AGL
  • Light Snow
Probable  (Probability 30%) Jan-22 @ 06:00 to Jan-22 @ 09:00
PROB30 2206/2209 2SM -SN
Visibility Conditions
2 miles
  • Light Snow
Probable  (Probability 30%) Jan-22 @ 09:00 to Jan-22 @ 12:00
PROB30 2209/2212 11/2SM -SN BLSN RMK FCST BASED ON AUTO OBS. NXT FCST BY 220600Z
Visibility Conditions
1 1/2 miles
  • Light Snow
  • Blowing
  • Snow
From Jan-22 @ 09:00 to Jan-22 @ 12:00
FM220900 17015G25KT 2SM -SN BLSN OVC015
Wind Visibility Clouds Conditions
170° at 15 knots
 Gusting to 25 knots
2 miles
  • Overcast at 1,500' AGL
  • Light Snow
  • Blowing
  • Snow
TAF CYGW 212341Z 2200/2212 17012G22KT P6SM FEW015 BKN140 TEMPO 2200/2206 5SM -SN BLSN BKN015 OVC140 FM220600 17015KT 6SM -SN FEW015 OVC060 PROB30 2206/2209 2SM -SN FM220900 17015G25KT 2SM -SN BLSN OVC015 PROB30 2209/2212 11/2SM -SN BLSN RMK FCST BASED ON AUTO OBS. NXT FCST BY 220600Z
Issued Jan-21 @ 23:41 UTC
(29 minutes ago)
Valid From Jan-22 @ 00:00 UTC
(10 minutes ago)
Valid To Jan-22 @ 12:00 UTC
(in 12 hours)
Jan-22 @ 00:00 - Jan-22 @ 06:00
Wind Visibility
170° at 12 knots
 Gusting to 22 knots
Greater than 6 miles
Clouds
  • Few at 1,500' AGL
  • Broken at 14,000' AGL
Temporary Jan-22 @ 00:00 - Jan-22 @ 06:00
Clouds
  • Broken at 1,500' AGL
  • Overcast at 14,000' AGL
Conditions
  • Light Snow
  • Blowing
  • Snow
From Jan-22 @ 06:00 - Jan-22 @ 09:00
Wind Visibility
170° at 15 knots 6 miles
Clouds
  • Few at 1,500' AGL
  • Overcast at 6,000' AGL
Conditions
  • Light Snow
Probability 30% Probable Jan-22 @ 06:00 - Jan-22 @ 09:00
Conditions
  • Light Snow
Probability 30% Probable Jan-22 @ 09:00 - Jan-22 @ 12:00
Conditions
  • Light Snow
  • Blowing
  • Snow
From Jan-22 @ 09:00 - Jan-22 @ 12:00
Wind Visibility
170° at 15 knots
 Gusting to 25 knots
2 miles
Clouds
  • Overcast at 1,500' AGL
Conditions
  • Light Snow
  • Blowing
  • Snow